sensor_id;sensor_type;location;lat;lon;timestamp;temperature;humidity
45735;DHT22;31446;49.632;8.328;2022-07-30T00:02:14;21.20;95.50
45735;DHT22;31446;49.632;8.328;2022-07-30T00:32:16;21.00;92.90
45735;DHT22;31446;49.632;8.328;2022-07-30T00:47:18;20.40;94.00
45735;DHT22;31446;49.632;8.328;2022-07-30T01:02:18;19.70;95.70
45735;DHT22;31446;49.632;8.328;2022-07-30T01:17:19;19.30;97.10
45735;DHT22;31446;49.632;8.328;2022-07-30T01:32:21;18.80;97.30
45735;DHT22;31446;49.632;8.328;2022-07-30T01:47:23;19.00;96.20
45735;DHT22;31446;49.632;8.328;2022-07-30T02:02:24;19.30;96.30
45735;DHT22;31446;49.632;8.328;2022-07-30T02:17:30;19.60;95.30
45735;DHT22;31446;49.632;8.328;2022-07-30T02:32:37;19.50;95.00
45735;DHT22;31446;49.632;8.328;2022-07-30T02:47:39;19.50;95.30
45735;DHT22;31446;49.632;8.328;2022-07-30T03:02:41;19.40;95.40
45735;DHT22;31446;49.632;8.328;2022-07-30T03:17:44;19.40;95.60
45735;DHT22;31446;49.632;8.328;2022-07-30T03:32:46;19.40;95.60
45735;DHT22;31446;49.632;8.328;2022-07-30T03:47:47;19.10;96.80
45735;DHT22;31446;49.632;8.328;2022-07-30T04:02:48;19.00;96.70
45735;DHT22;31446;49.632;8.328;2022-07-30T04:17:54;18.70;97.70
45735;DHT22;31446;49.632;8.328;2022-07-30T04:32:56;18.70;98.20
45735;DHT22;31446;49.632;8.328;2022-07-30T04:47:57;18.50;98.80
45735;DHT22;31446;49.632;8.328;2022-07-30T05:02:58;18.60;99.60
45735;DHT22;31446;49.632;8.328;2022-07-30T05:18:00;19.20;98.50
45735;DHT22;31446;49.632;8.328;2022-07-30T05:33:00;20.90;95.10
45735;DHT22;31446;49.632;8.328;2022-07-30T05:48:01;21.30;94.60
45735;DHT22;31446;49.632;8.328;2022-07-30T06:03:02;21.20;94.70
45735;DHT22;31446;49.632;8.328;2022-07-30T06:18:05;21.10;95.30
45735;DHT22;31446;49.632;8.328;2022-07-30T06:33:06;21.30;95.50
45735;DHT22;31446;49.632;8.328;2022-07-30T06:48:07;22.00;94.30
45735;DHT22;31446;49.632;8.328;2022-07-30T07:03:07;22.40;93.40
45735;DHT22;31446;49.632;8.328;2022-07-30T07:18:08;23.00;92.70
45735;DHT22;31446;49.632;8.328;2022-07-30T07:33:09;23.90;91.40
45735;DHT22;31446;49.632;8.328;2022-07-30T07:48:11;25.10;90.40
45735;DHT22;31446;49.632;8.328;2022-07-30T08:03:12;25.90;87.20
45735;DHT22;31446;49.632;8.328;2022-07-30T08:18:12;26.00;88.50
45735;DHT22;31446;49.632;8.328;2022-07-30T08:33:13;25.00;89.00
45735;DHT22;31446;49.632;8.328;2022-07-30T09:20:18;27.70;83.30
45735;DHT22;31446;49.632;8.328;2022-07-30T09:51:37;26.50;75.70
45735;DHT22;31446;49.632;8.328;2022-07-30T10:06:37;26.60;73.90
45735;DHT22;31446;49.632;8.328;2022-07-30T10:21:38;26.90;72.10
45735;DHT22;31446;49.632;8.328;2022-07-30T10:36:59;27.50;72.60
45735;DHT22;31446;49.632;8.328;2022-07-30T10:52:00;27.70;73.90
45735;DHT22;31446;49.632;8.328;2022-07-30T11:37:28;29.50;68.50
45735;DHT22;31446;49.632;8.328;2022-07-30T11:52:28;28.60;69.10
45735;DHT22;31446;49.632;8.328;2022-07-30T12:07:29;28.50;67.90
45735;DHT22;31446;49.632;8.328;2022-07-30T12:22:31;29.20;68.10
45735;DHT22;31446;49.632;8.328;2022-07-30T12:37:32;30.00;65.20
45735;DHT22;31446;49.632;8.328;2022-07-30T12:52:34;29.30;65.00
45735;DHT22;31446;49.632;8.328;2022-07-30T13:07:35;30.60;63.20
45735;DHT22;31446;49.632;8.328;2022-07-30T13:22:51;30.90;61.50
45735;DHT22;31446;49.632;8.328;2022-07-30T13:37:51;30.70;57.70
45735;DHT22;31446;49.632;8.328;2022-07-30T13:52:52;29.10;56.80
45735;DHT22;31446;49.632;8.328;2022-07-30T14:07:54;30.60;54.50
45735;DHT22;31446;49.632;8.328;2022-07-30T14:22:54;30.20;55.30
45735;DHT22;31446;49.632;8.328;2022-07-30T14:37:55;30.10;54.60
45735;DHT22;31446;49.632;8.328;2022-07-30T14:52:56;30.00;55.70
45735;DHT22;31446;49.632;8.328;2022-07-30T15:07:56;30.10;56.40
45735;DHT22;31446;49.632;8.328;2022-07-30T15:22:57;30.00;55.70
45735;DHT22;31446;49.632;8.328;2022-07-30T15:37:58;29.90;57.50
45735;DHT22;31446;49.632;8.328;2022-07-30T15:52:58;29.70;58.40
45735;DHT22;31446;49.632;8.328;2022-07-30T16:07:59;29.80;58.00
45735;DHT22;31446;49.632;8.328;2022-07-30T16:22:59;29.60;58.20
45735;DHT22;31446;49.632;8.328;2022-07-30T16:38:00;29.40;57.50
45735;DHT22;31446;49.632;8.328;2022-07-30T16:53:02;30.00;56.90
45735;DHT22;31446;49.632;8.328;2022-07-30T17:08:05;31.30;55.90
45735;DHT22;31446;49.632;8.328;2022-07-30T17:23:06;30.90;55.90
45735;DHT22;31446;49.632;8.328;2022-07-30T17:38:07;32.10;55.20
45735;DHT22;31446;49.632;8.328;2022-07-30T17:53:07;31.40;54.30
45735;DHT22;31446;49.632;8.328;2022-07-30T18:08:08;28.90;54.80
45735;DHT22;31446;49.632;8.328;2022-07-30T18:23:09;27.60;55.20
45735;DHT22;31446;49.632;8.328;2022-07-30T18:38:10;28.70;54.70
45735;DHT22;31446;49.632;8.328;2022-07-30T18:53:11;27.20;56.40
45735;DHT22;31446;49.632;8.328;2022-07-30T19:08:11;26.40;57.50
45735;DHT22;31446;49.632;8.328;2022-07-30T19:23:12;25.60;59.40
45735;DHT22;31446;49.632;8.328;2022-07-30T19:38:14;24.90;61.40
45735;DHT22;31446;49.632;8.328;2022-07-30T19:53:15;24.30;62.90
45735;DHT22;31446;49.632;8.328;2022-07-30T20:08:16;23.80;64.00
45735;DHT22;31446;49.632;8.328;2022-07-30T20:23:17;23.50;64.90
45735;DHT22;31446;49.632;8.328;2022-07-30T20:38:18;23.20;66.40
45735;DHT22;31446;49.632;8.328;2022-07-30T20:53:18;22.60;68.40
45735;DHT22;31446;49.632;8.328;2022-07-30T21:08:21;22.50;72.10
45735;DHT22;31446;49.632;8.328;2022-07-30T21:23:24;22.80;75.90
45735;DHT22;31446;49.632;8.328;2022-07-30T21:38:26;23.00;78.40
45735;DHT22;31446;49.632;8.328;2022-07-30T21:53:27;23.00;72.60
45735;DHT22;31446;49.632;8.328;2022-07-30T22:08:27;23.10;74.50
45735;DHT22;31446;49.632;8.328;2022-07-30T22:23:28;22.70;74.40
45735;DHT22;31446;49.632;8.328;2022-07-30T22:38:29;22.50;76.50
45735;DHT22;31446;49.632;8.328;2022-07-30T22:53:30;22.40;74.80
45735;DHT22;31446;49.632;8.328;2022-07-30T23:08:33;22.50;77.30
45735;DHT22;31446;49.632;8.328;2022-07-30T23:23:33;22.70;75.40
45735;DHT22;31446;49.632;8.328;2022-07-30T23:38:35;22.90;78.20
45735;DHT22;31446;49.632;8.328;2022-07-30T23:53:36;23.00;77.10
